createdAt,value
2022-08-19T00:01:56.846Z,25.20
2022-08-19T00:04:30.168Z,25.20
2022-08-19T00:06:58.112Z,25.20
2022-08-19T00:09:26.590Z,25.20
2022-08-19T00:11:56.548Z,25.20
2022-08-19T00:14:26.223Z,25.20
2022-08-19T00:16:55.465Z,25.10
2022-08-19T00:19:24.714Z,25.10
2022-08-19T00:21:53.360Z,25.10
2022-08-19T00:24:20.828Z,25.10
2022-08-19T00:26:48.113Z,25.10
2022-08-19T00:29:19.687Z,25.10
2022-08-19T00:31:47.379Z,25.10
2022-08-19T00:34:15.931Z,25.10
2022-08-19T00:36:44.570Z,25.10
2022-08-19T00:39:13.726Z,25.10
2022-08-19T00:41:41.761Z,25.10
2022-08-19T00:44:15.143Z,25.10
2022-08-19T00:46:57.716Z,25.10
2022-08-19T00:49:52.217Z,25.10
2022-08-19T00:52:35.128Z,25.10
2022-08-19T00:55:05.167Z,25.00
2022-08-19T00:57:39.135Z,25.00
2022-08-19T01:00:14.810Z,25.00
2022-08-19T01:02:43.484Z,25.00
2022-08-19T01:05:20.834Z,25.00
2022-08-19T01:07:49.746Z,25.00
2022-08-19T01:10:22.277Z,25.00
2022-08-19T01:12:51.084Z,25.00
2022-08-19T01:15:25.355Z,25.00
2022-08-19T01:17:54.503Z,25.00
2022-08-19T01:20:24.168Z,25.00
2022-08-19T01:22:56.513Z,25.00
2022-08-19T01:25:32.535Z,25.00
2022-08-19T01:28:03.081Z,25.00
2022-08-19T01:30:38.700Z,25.00
2022-08-19T01:33:06.669Z,25.00
2022-08-19T01:35:36.367Z,25.00
2022-08-19T01:38:11.128Z,25.00
2022-08-19T01:40:42.788Z,24.90
2022-08-19T01:43:09.970Z,24.90
2022-08-19T01:45:40.145Z,24.90
2022-08-19T01:48:08.510Z,24.90
2022-08-19T01:50:37.300Z,24.90
2022-08-19T01:53:10.766Z,24.90
2022-08-19T01:55:42.087Z,24.90
2022-08-19T01:58:19.948Z,24.90
2022-08-19T02:00:48.526Z,24.90
2022-08-19T02:03:16.909Z,24.90
2022-08-19T02:05:45.186Z,24.90
2022-08-19T02:08:13.161Z,24.80
2022-08-19T02:10:44.096Z,24.80
2022-08-19T02:13:14.674Z,24.80
2022-08-19T02:15:42.426Z,24.80
2022-08-19T02:18:09.952Z,24.80
2022-08-19T02:20:38.692Z,24.80
2022-08-19T02:23:13.514Z,24.80
2022-08-19T02:25:45.718Z,24.80
2022-08-19T02:28:17.891Z,24.70
2022-08-19T02:30:48.070Z,24.70
2022-08-19T02:33:15.995Z,24.70
2022-08-19T02:35:45.315Z,24.70
2022-08-19T02:38:27.548Z,24.70
2022-08-19T02:41:03.413Z,24.60
2022-08-19T02:43:33.886Z,24.60
2022-08-19T02:46:03.333Z,24.60
2022-08-19T02:48:31.039Z,24.60
2022-08-19T02:50:58.134Z,24.60
2022-08-19T02:53:28.179Z,24.60
2022-08-19T02:55:55.687Z,24.60
2022-08-19T02:58:25.154Z,24.60
2022-08-19T03:00:56.196Z,24.60
2022-08-19T03:03:24.574Z,24.60
2022-08-19T03:05:56.421Z,24.60
2022-08-19T03:08:26.532Z,24.60
2022-08-19T03:10:54.309Z,24.60
2022-08-19T03:13:21.806Z,24.60
2022-08-19T03:15:49.848Z,24.60
2022-08-19T03:18:17.993Z,24.60
2022-08-19T03:20:49.669Z,24.60
2022-08-19T03:23:18.045Z,24.60
2022-08-19T03:26:02.955Z,24.60
2022-08-19T03:28:38.249Z,24.60
2022-08-19T03:31:43.584Z,24.60
2022-08-19T03:33:58.071Z,24.60
2022-08-19T03:36:29.544Z,24.60
2022-08-19T03:39:01.332Z,24.60
2022-08-19T03:41:45.099Z,24.60
2022-08-19T03:44:24.017Z,24.60
2022-08-19T03:46:58.519Z,24.60
2022-08-19T03:49:29.977Z,24.60
2022-08-19T03:52:01.504Z,24.60
2022-08-19T03:54:29.810Z,24.60
2022-08-19T03:56:58.370Z,24.60
2022-08-19T03:59:33.126Z,24.60
2022-08-19T04:02:03.738Z,24.60
2022-08-19T04:04:31.941Z,24.60
2022-08-19T04:06:59.610Z,24.60
2022-08-19T04:09:28.021Z,24.60
2022-08-19T04:11:57.779Z,24.60
2022-08-19T04:14:31.243Z,24.60
2022-08-19T04:17:00.797Z,24.60
2022-08-19T04:19:30.730Z,24.60
2022-08-19T04:21:58.282Z,24.60
2022-08-19T04:24:25.946Z,24.60
2022-08-19T04:26:53.529Z,24.60
2022-08-19T04:29:26.158Z,24.50
2022-08-19T04:31:56.546Z,24.50
2022-08-19T04:34:27.454Z,24.50
2022-08-19T04:36:58.264Z,24.50
2022-08-19T04:39:50.812Z,24.50
2022-08-19T04:42:37.903Z,24.50
2022-08-19T04:45:13.539Z,24.40
2022-08-19T04:47:49.148Z,24.40
2022-08-19T04:50:27.762Z,24.40
2022-08-19T04:52:56.635Z,24.40
2022-08-19T04:55:26.464Z,24.40
2022-08-19T04:57:54.722Z,24.40
2022-08-19T05:00:22.094Z,24.40
2022-08-19T05:02:50.083Z,24.40
2022-08-19T05:05:17.846Z,24.40
2022-08-19T05:07:44.996Z,24.40
2022-08-19T05:10:12.651Z,24.40
2022-08-19T05:12:40.272Z,24.40
2022-08-19T05:15:11.723Z,24.40
2022-08-19T05:17:39.410Z,24.40
2022-08-19T05:20:29.396Z,24.40
2022-08-19T05:22:56.711Z,24.40
2022-08-19T05:25:26.820Z,24.40
2022-08-19T05:27:54.046Z,24.40
2022-08-19T05:30:33.491Z,24.40
2022-08-19T05:33:01.159Z,24.40
2022-08-19T05:35:29.215Z,24.40
2022-08-19T05:38:02.169Z,24.40
2022-08-19T05:40:29.668Z,24.40
2022-08-19T05:42:57.166Z,24.40
2022-08-19T05:45:25.816Z,24.40
2022-08-19T05:47:52.899Z,24.40
2022-08-19T05:50:20.240Z,24.40
2022-08-19T05:52:50.111Z,24.40
2022-08-19T05:55:21.210Z,24.40
2022-08-19T05:57:48.523Z,24.40
2022-08-19T06:00:16.383Z,24.40
2022-08-19T06:02:43.663Z,24.40
2022-08-19T06:05:11.930Z,24.40
2022-08-19T06:07:42.205Z,24.40
2022-08-19T06:10:12.002Z,24.40
2022-08-19T06:12:39.377Z,24.40
2022-08-19T06:15:11.758Z,24.40
2022-08-19T06:17:39.536Z,24.40
2022-08-19T06:20:14.633Z,24.40
2022-08-19T06:22:50.867Z,24.40
2022-08-19T06:25:19.644Z,24.40
2022-08-19T06:28:11.873Z,24.40
2022-08-19T06:30:35.043Z,24.40
2022-08-19T06:33:02.231Z,24.40
2022-08-19T06:35:30.448Z,24.50
2022-08-19T06:37:58.008Z,24.50
2022-08-19T06:40:25.402Z,24.50
2022-08-19T06:42:54.950Z,24.50
2022-08-19T06:45:24.498Z,24.40
2022-08-19T06:47:57.126Z,24.50
2022-08-19T06:50:25.323Z,24.50
2022-08-19T06:52:53.288Z,24.50
2022-08-19T06:55:20.941Z,24.40
2022-08-19T06:57:49.163Z,24.50
2022-08-19T07:00:16.944Z,24.50
2022-08-19T07:02:49.733Z,24.50
2022-08-19T07:05:20.463Z,24.50
2022-08-19T07:07:47.748Z,24.50
2022-08-19T07:10:15.142Z,24.50
2022-08-19T07:12:42.295Z,24.50
2022-08-19T07:15:10.894Z,24.50
2022-08-19T07:17:39.688Z,24.50
2022-08-19T07:20:09.591Z,24.50
2022-08-19T07:22:41.777Z,24.50
2022-08-19T07:25:10.732Z,24.50
2022-08-19T07:27:39.739Z,24.50
2022-08-19T07:30:11.667Z,24.50
2022-08-19T07:32:40.558Z,24.50
2022-08-19T07:35:08.870Z,24.50
2022-08-19T07:37:38.262Z,24.50
2022-08-19T07:40:08.837Z,24.50
2022-08-19T07:42:36.398Z,24.50
2022-08-19T07:45:05.932Z,24.50
2022-08-19T07:47:58.577Z,24.50
2022-08-19T07:50:22.135Z,24.50
2022-08-19T07:52:51.076Z,24.50
2022-08-19T07:55:42.056Z,24.50
2022-08-19T07:58:11.191Z,24.50
2022-08-19T08:00:39.661Z,24.50
2022-08-19T08:03:06.965Z,24.50
2022-08-19T08:05:53.164Z,24.50
2022-08-19T08:08:32.664Z,24.50
2022-08-19T08:11:01.432Z,24.50
2022-08-19T08:13:29.325Z,24.50
2022-08-19T08:15:58.263Z,24.50
2022-08-19T08:18:27.470Z,24.50
2022-08-19T08:20:59.305Z,24.50
2022-08-19T08:23:27.185Z,24.50
2022-08-19T08:25:57.925Z,24.50
2022-08-19T08:28:29.557Z,24.50
2022-08-19T08:30:58.799Z,24.50
2022-08-19T08:33:33.361Z,24.50
2022-08-19T08:36:06.073Z,24.50
2022-08-19T08:38:39.645Z,24.40
2022-08-19T08:41:32.598Z,24.40
2022-08-19T08:44:01.073Z,24.40
2022-08-19T08:46:41.304Z,24.40
2022-08-19T08:49:09.882Z,24.40
2022-08-19T08:52:01.487Z,24.40
2022-08-19T08:54:40.796Z,24.40
2022-08-19T08:57:42.473Z,24.40
2022-08-19T09:00:18.490Z,24.40
2022-08-19T09:02:50.859Z,24.40
2022-08-19T09:05:22.749Z,24.40
2022-08-19T09:08:13.682Z,24.40
2022-08-19T09:11:01.954Z,24.40
2022-08-19T09:13:50.197Z,24.40
2022-08-19T09:16:28.042Z,24.40
2022-08-19T09:19:00.048Z,24.40
2022-08-19T09:21:33.004Z,24.40
2022-08-19T09:24:03.761Z,24.40
2022-08-19T09:26:48.489Z,24.40
2022-08-19T09:29:22.529Z,24.40
2022-08-19T09:31:50.908Z,24.50
2022-08-19T09:34:22.120Z,24.50
2022-08-19T09:36:54.271Z,24.50
2022-08-19T09:39:22.854Z,24.50
2022-08-19T09:41:51.141Z,24.50
2022-08-19T09:44:19.261Z,24.50
2022-08-19T09:46:48.264Z,24.50
2022-08-19T09:49:18.671Z,24.60
2022-08-19T09:51:51.249Z,24.60
2022-08-19T09:54:23.520Z,24.60
2022-08-19T09:56:55.328Z,24.60
2022-08-19T09:59:23.467Z,24.60
2022-08-19T10:01:52.342Z,24.60
2022-08-19T10:04:22.105Z,24.60
2022-08-19T10:06:53.671Z,24.60
2022-08-19T10:09:26.428Z,24.60
2022-08-19T10:12:06.157Z,24.60
2022-08-19T10:14:34.522Z,24.60
2022-08-19T10:17:17.933Z,24.70
2022-08-19T10:19:53.830Z,24.70
2022-08-19T10:22:23.222Z,24.70
2022-08-19T10:24:53.669Z,24.70
2022-08-19T10:27:21.057Z,24.70
2022-08-19T10:29:48.994Z,24.70
2022-08-19T10:32:16.700Z,24.70
2022-08-19T10:34:48.746Z,24.70
2022-08-19T10:37:29.209Z,24.70
2022-08-19T10:39:59.879Z,24.70
2022-08-19T10:42:27.434Z,24.70
2022-08-19T10:44:54.550Z,24.70
2022-08-19T10:47:24.940Z,24.70
2022-08-19T10:50:14.198Z,24.70
2022-08-19T10:52:50.385Z,24.70
2022-08-19T10:55:43.335Z,24.70
2022-08-19T10:58:23.504Z,24.70
2022-08-19T11:00:57.808Z,24.70
2022-08-19T11:03:27.546Z,24.70
2022-08-19T11:06:08.515Z,24.70
2022-08-19T11:08:38.718Z,24.70
2022-08-19T11:11:08.177Z,24.70
2022-08-19T11:13:39.401Z,24.70
2022-08-19T11:16:15.375Z,24.70
2022-08-19T11:18:48.094Z,24.70
2022-08-19T11:21:23.381Z,24.70
2022-08-19T11:23:54.659Z,24.60
2022-08-19T11:26:23.615Z,24.60
2022-08-19T11:28:55.706Z,24.60
2022-08-19T11:31:28.811Z,24.60
2022-08-19T11:34:02.567Z,24.60
2022-08-19T11:36:32.291Z,24.60
2022-08-19T11:38:59.927Z,24.50
2022-08-19T11:41:28.157Z,24.60
2022-08-19T11:43:56.367Z,24.50
2022-08-19T11:46:26.472Z,24.60
2022-08-19T11:48:57.459Z,24.50
2022-08-19T11:51:26.876Z,24.50
2022-08-19T11:53:59.049Z,24.50
2022-08-19T11:56:27.883Z,24.50
2022-08-19T11:58:57.947Z,24.50
2022-08-19T12:01:27.447Z,24.50
2022-08-19T12:03:56.309Z,24.50
2022-08-19T12:06:30.102Z,24.50
2022-08-19T12:08:59.696Z,24.50
2022-08-19T12:11:29.057Z,24.50
2022-08-19T12:13:59.119Z,24.50
2022-08-19T12:16:29.275Z,24.60
2022-08-19T12:18:58.507Z,24.50
2022-08-19T12:21:31.300Z,24.50
2022-08-19T12:24:01.038Z,24.60
2022-08-19T12:26:30.180Z,24.60
2022-08-19T12:28:57.419Z,24.60
2022-08-19T12:31:24.743Z,24.60
2022-08-19T12:33:53.488Z,24.60
2022-08-19T12:36:20.949Z,24.60
2022-08-19T12:38:48.011Z,24.60
2022-08-19T12:41:19.238Z,24.60
2022-08-19T12:43:46.571Z,24.60
2022-08-19T12:46:13.812Z,24.60
2022-08-19T12:48:44.837Z,24.60
2022-08-19T12:51:19.051Z,24.60
2022-08-19T12:53:47.708Z,24.60
2022-08-19T12:56:16.085Z,24.60
2022-08-19T12:58:49.102Z,24.60
2022-08-19T13:01:22.619Z,24.60
2022-08-19T13:03:51.050Z,24.60
2022-08-19T13:06:19.433Z,24.60
2022-08-19T13:08:47.947Z,24.60
2022-08-19T13:11:21.937Z,24.60
2022-08-19T13:13:51.393Z,24.60
2022-08-19T13:16:21.211Z,24.60
2022-08-19T13:18:50.271Z,24.60
2022-08-19T13:21:17.573Z,24.60
2022-08-19T13:23:49.361Z,24.60
2022-08-19T13:26:17.252Z,24.60
2022-08-19T13:29:04.334Z,24.60
2022-08-19T13:31:54.241Z,24.50
2022-08-19T13:34:33.928Z,24.50
2022-08-19T13:37:04.062Z,24.50
2022-08-19T13:39:35.669Z,24.50
2022-08-19T13:42:05.293Z,24.50
2022-08-19T13:44:33.231Z,24.50
2022-08-19T13:47:10.800Z,24.60
2022-08-19T13:49:38.347Z,24.60
2022-08-19T13:52:07.115Z,24.50
2022-08-19T13:54:36.781Z,24.50
2022-08-19T13:57:04.539Z,24.50
2022-08-19T13:59:31.770Z,24.50
2022-08-19T14:02:00.970Z,24.50
2022-08-19T14:04:28.945Z,24.50
2022-08-19T14:06:56.077Z,24.50
2022-08-19T14:09:23.260Z,24.50
2022-08-19T14:11:52.018Z,24.50
2022-08-19T14:14:19.095Z,24.50
2022-08-19T14:16:46.437Z,24.60
2022-08-19T14:19:13.983Z,24.50
2022-08-19T14:21:42.316Z,24.50
2022-08-19T14:24:10.274Z,24.50
2022-08-19T14:26:37.560Z,24.60
2022-08-19T14:29:04.823Z,24.60
2022-08-19T14:31:31.902Z,24.60
2022-08-19T14:33:59.123Z,24.60
2022-08-19T14:36:26.367Z,24.60
2022-08-19T14:38:54.270Z,24.60
2022-08-19T14:41:24.572Z,24.60
2022-08-19T14:43:54.017Z,24.50
2022-08-19T14:46:28.205Z,24.50
2022-08-19T14:48:57.609Z,24.50
2022-08-19T14:51:27.743Z,24.50
2022-08-19T14:53:55.724Z,24.50
2022-08-19T14:56:29.323Z,24.50
2022-08-19T14:59:00.332Z,24.50
2022-08-19T15:01:27.872Z,24.60
2022-08-19T15:03:59.106Z,24.60
2022-08-19T15:06:27.233Z,24.60
2022-08-19T15:08:55.217Z,24.60
2022-08-19T15:11:27.806Z,24.60
2022-08-19T15:13:57.307Z,24.60
2022-08-19T15:16:28.980Z,24.60
2022-08-19T15:18:59.892Z,24.60
2022-08-19T15:21:29.001Z,24.60
2022-08-19T15:23:59.340Z,24.60
2022-08-19T15:26:29.052Z,24.60
2022-08-19T15:28:56.988Z,24.60
2022-08-19T15:31:28.176Z,24.60
2022-08-19T15:33:59.274Z,24.60
2022-08-19T15:36:27.641Z,24.60
2022-08-19T15:38:56.934Z,24.60
2022-08-19T15:41:30.894Z,24.60
2022-08-19T15:44:00.594Z,24.60
2022-08-19T15:46:31.567Z,24.60
2022-08-19T15:49:00.537Z,24.60
2022-08-19T15:51:31.975Z,24.60
2022-08-19T15:54:00.406Z,24.60
2022-08-19T15:56:57.389Z,24.60
2022-08-19T15:59:47.126Z,24.60
2022-08-19T16:02:35.171Z,24.60
2022-08-19T16:05:26.887Z,24.60
2022-08-19T16:07:57.652Z,24.60
2022-08-19T16:10:26.218Z,24.60
2022-08-19T16:12:58.553Z,24.60
2022-08-19T16:15:30.556Z,24.60
2022-08-19T16:17:58.565Z,24.60
2022-08-19T16:20:27.343Z,24.60
2022-08-19T16:22:58.510Z,24.60
2022-08-19T16:25:30.095Z,24.60
2022-08-19T16:28:07.466Z,24.60
2022-08-19T16:30:39.272Z,24.60
2022-08-19T16:33:07.804Z,24.60
2022-08-19T16:35:35.776Z,24.60
2022-08-19T16:38:03.368Z,24.60
2022-08-19T16:40:30.495Z,24.60
2022-08-19T16:42:57.680Z,24.60
2022-08-19T16:45:25.226Z,24.60
2022-08-19T16:47:52.531Z,24.60
2022-08-19T16:50:39.046Z,24.60
2022-08-19T16:53:09.694Z,24.60
2022-08-19T16:55:37.691Z,24.60
2022-08-19T16:58:05.054Z,24.60
2022-08-19T17:00:32.367Z,24.60
2022-08-19T17:03:08.684Z,24.60
2022-08-19T17:05:46.498Z,24.70
2022-08-19T17:08:18.535Z,24.60
2022-08-19T17:11:16.423Z,24.60
2022-08-19T17:13:34.563Z,24.60
2022-08-19T17:16:02.485Z,24.60
2022-08-19T17:18:32.719Z,24.60
2022-08-19T17:21:01.542Z,24.60
2022-08-19T17:23:42.382Z,24.60
2022-08-19T17:26:17.918Z,24.60
2022-08-19T17:28:50.074Z,24.60
2022-08-19T17:31:20.596Z,24.60
2022-08-19T17:33:48.783Z,24.60
2022-08-19T17:36:30.157Z,24.60
2022-08-19T17:39:00.680Z,24.60
2022-08-19T17:41:30.570Z,24.60
2022-08-19T17:43:58.453Z,24.50
2022-08-19T17:46:25.773Z,24.50
2022-08-19T17:48:57.081Z,24.50
2022-08-19T17:51:32.797Z,24.50
2022-08-19T17:54:01.026Z,24.50
2022-08-19T17:56:31.211Z,24.50
2022-08-19T17:59:00.472Z,24.50
2022-08-19T18:01:50.644Z,24.40
2022-08-19T18:04:19.806Z,24.40
2022-08-19T18:06:53.701Z,24.30
2022-08-19T18:09:27.360Z,24.30
2022-08-19T18:11:57.263Z,24.30
2022-08-19T18:14:33.648Z,24.20
2022-08-19T18:17:14.103Z,24.20
2022-08-19T18:19:45.715Z,24.10
2022-08-19T18:22:35.556Z,24.10
2022-08-19T18:25:25.983Z,24.10
2022-08-19T18:28:00.660Z,24.10
2022-08-19T18:30:34.242Z,24.10
2022-08-19T18:33:14.251Z,24.00
2022-08-19T18:35:46.643Z,24.00
2022-08-19T18:38:36.140Z,24.00
2022-08-19T18:41:22.690Z,24.00
2022-08-19T18:44:08.681Z,23.90
2022-08-19T18:46:54.725Z,24.00
2022-08-19T18:49:29.132Z,24.00
2022-08-19T18:51:57.549Z,24.00
2022-08-19T18:54:26.727Z,24.00
2022-08-19T18:56:55.792Z,24.00
2022-08-19T18:59:26.469Z,24.00
2022-08-19T19:01:57.499Z,24.00
2022-08-19T19:04:33.518Z,24.00
2022-08-19T19:07:00.998Z,24.00
2022-08-19T19:09:28.865Z,24.10
2022-08-19T19:12:00.718Z,24.10
2022-08-19T19:14:51.231Z,24.10
2022-08-19T19:17:20.032Z,24.00
2022-08-19T19:19:47.328Z,24.00
2022-08-19T19:22:19.855Z,24.10
2022-08-19T19:24:47.483Z,24.10
2022-08-19T19:27:18.562Z,24.10
2022-08-19T19:29:51.549Z,24.10
2022-08-19T19:32:36.957Z,24.10
2022-08-19T19:35:09.450Z,24.10
2022-08-19T19:37:36.742Z,24.10
2022-08-19T19:40:05.140Z,24.20
2022-08-19T19:42:32.288Z,24.20
2022-08-19T19:45:02.053Z,24.20
2022-08-19T19:47:30.385Z,24.20
2022-08-19T19:50:14.224Z,24.20
2022-08-19T19:52:45.643Z,24.20
2022-08-19T19:55:18.218Z,24.20
2022-08-19T19:57:47.511Z,24.20
2022-08-19T20:00:19.224Z,24.20
2022-08-19T20:02:50.171Z,24.20
2022-08-19T20:05:21.387Z,24.20
2022-08-19T20:08:09.531Z,24.30
2022-08-19T20:10:37.728Z,24.20
2022-08-19T20:21:34.653Z,24.20
2022-08-19T20:24:09.606Z,24.20
2022-08-19T20:26:38.235Z,24.20
2022-08-19T20:29:13.586Z,24.20
2022-08-19T20:31:54.367Z,24.20
2022-08-19T20:34:25.008Z,24.20
2022-08-19T20:36:52.461Z,24.20
2022-08-19T20:39:19.804Z,24.20
2022-08-19T20:41:47.153Z,24.20
2022-08-19T20:44:15.075Z,24.20
2022-08-19T20:46:43.174Z,24.20
2022-08-19T20:49:27.243Z,24.20
2022-08-19T20:51:56.210Z,24.20
2022-08-19T20:54:24.307Z,24.20
2022-08-19T20:56:51.824Z,24.20
2022-08-19T20:59:20.545Z,24.20
2022-08-19T21:01:48.810Z,24.20
2022-08-19T21:04:16.778Z,24.20
2022-08-19T21:06:45.329Z,24.20
2022-08-19T21:09:13.727Z,24.20
2022-08-19T21:11:41.117Z,24.20
2022-08-19T21:14:08.788Z,24.20
2022-08-19T21:16:36.377Z,24.20
2022-08-19T21:19:04.759Z,24.20
2022-08-19T21:21:33.259Z,24.20
2022-08-19T21:24:01.793Z,24.20
2022-08-19T21:26:29.268Z,24.20
2022-08-19T21:28:56.633Z,24.30
2022-08-19T21:31:26.834Z,24.20
2022-08-19T21:33:54.062Z,24.20
2022-08-19T21:36:21.855Z,24.20
2022-08-19T21:38:49.103Z,24.30
2022-08-19T21:41:16.315Z,24.30
2022-08-19T21:43:43.500Z,24.30
2022-08-19T21:46:10.970Z,24.30
2022-08-19T21:48:38.370Z,24.30
2022-08-19T21:51:06.394Z,24.30
2022-08-19T21:53:34.669Z,24.30
2022-08-19T21:56:04.734Z,24.30
2022-08-19T21:58:31.879Z,24.30
2022-08-19T22:01:01.589Z,24.30
2022-08-19T22:03:29.612Z,24.30
2022-08-19T22:05:58.632Z,24.30
2022-08-19T22:08:27.241Z,24.20
2022-08-19T22:10:55.102Z,24.20
2022-08-19T22:13:22.667Z,24.20
2022-08-19T22:15:51.960Z,24.20
2022-08-19T22:18:19.477Z,24.20
2022-08-19T22:20:47.904Z,24.20
2022-08-19T22:23:15.298Z,24.20
2022-08-19T22:25:46.737Z,24.20
2022-08-19T22:28:18.971Z,24.20
2022-08-19T22:30:55.993Z,24.20
2022-08-19T22:33:25.858Z,24.20
2022-08-19T22:35:53.957Z,24.20
2022-08-19T22:38:22.812Z,24.20
2022-08-19T22:40:52.141Z,24.20
2022-08-19T22:43:28.714Z,24.20
2022-08-19T22:45:58.202Z,24.20
2022-08-19T22:48:28.037Z,24.20
2022-08-19T22:51:15.352Z,24.10
2022-08-19T22:53:46.649Z,24.20
2022-08-19T22:56:19.339Z,24.20
2022-08-19T22:58:50.174Z,24.20
2022-08-19T23:01:29.891Z,24.20
2022-08-19T23:03:59.925Z,24.20
2022-08-19T23:06:33.752Z,24.20
2022-08-19T23:09:05.319Z,24.20
2022-08-19T23:11:41.953Z,24.20
2022-08-19T23:14:12.770Z,24.20
2022-08-19T23:16:41.868Z,24.20
2022-08-19T23:19:10.637Z,24.20
2022-08-19T23:21:40.245Z,24.20
2022-08-19T23:24:08.004Z,24.10
2022-08-19T23:26:36.206Z,24.10
2022-08-19T23:29:24.475Z,24.10
2022-08-19T23:31:51.804Z,24.10
2022-08-19T23:34:20.290Z,24.10
2022-08-19T23:36:48.420Z,24.10
2022-08-19T23:39:15.882Z,24.10
2022-08-19T23:41:43.204Z,24.10
2022-08-19T23:44:14.544Z,24.10
2022-08-19T23:46:55.220Z,24.10
2022-08-19T23:49:25.166Z,24.10
2022-08-19T23:51:54.369Z,24.10
2022-08-19T23:54:21.831Z,24.10
2022-08-19T23:56:49.399Z,24.10
2022-08-19T23:59:19.720Z,24.10
